Time;durP1;ratioP1;P1;durP2;ratioP2;P2;SDS_P1;SDS_P2;PMS_P1;PMS_P2;Temp;Humidity;BMP_temperature;BMP_pressure;BME280_temperature;BME280_humidity;BME280_pressure;Samples;Min_cycle;Max_cycle;Signal;HPM_P1;HPM_P2
2023/06/09 00:02:18;;;;;;;8.10;4.60;;;;;;;19.95;55.16;100675.20;107768;1258;73431;-80
2023/06/09 00:04:48;;;;;;;7.50;5.00;;;;;;;19.94;55.05;100676.30;107745;1257;72141;-80
2023/06/09 00:07:17;;;;;;;6.60;4.90;;;;;;;19.91;55.25;100677.56;107891;1257;70891;-80
2023/06/09 00:09:44;;;;;;;6.30;4.80;;;;;;;19.91;55.10;100679.48;107962;1257;60294;-79
2023/06/09 00:12:12;;;;;;;6.60;5.20;;;;;;;19.90;55.26;100676.68;107995;1258;60131;-80
2023/06/09 00:14:39;;;;;;;6.30;4.70;;;;;;;19.88;55.13;100679.12;107978;1257;73508;-78
2023/06/09 00:17:09;;;;;;;6.70;4.90;;;;;;;19.88;55.09;100678.48;107730;1257;72467;-79
2023/06/09 00:19:37;;;;;;;6.40;4.80;;;;;;;19.89;55.08;100672.80;107802;1257;72807;-79
2023/06/09 00:22:05;;;;;;;7.10;4.80;;;;;;;19.90;55.38;100671.08;107813;1257;61970;-80
2023/06/09 00:24:32;;;;;;;6.70;4.80;;;;;;;19.90;55.82;100667.50;107831;1258;61138;-80
2023/06/09 00:26:59;;;;;;;8.40;4.60;;;;;;;19.89;55.91;100663.52;107862;1256;74719;-80
2023/06/09 00:29:26;;;;;;;6.80;5.00;;;;;;;19.91;56.04;100662.02;107932;1257;71458;-80
2023/06/09 00:31:53;;;;;;;7.30;5.30;;;;;;;19.93;56.08;100660.12;107828;1257;72971;-80
2023/06/09 00:34:19;;;;;;;7.00;5.30;;;;;;;19.96;56.25;100661.77;107936;1257;61878;-79
2023/06/09 00:36:49;;;;;;;9.70;5.60;;;;;;;19.98;56.64;100651.98;107991;1257;61225;-79
2023/06/09 00:39:16;;;;;;;12.20;5.90;;;;;;;20.01;56.82;100655.70;107920;1258;74734;-80
2023/06/09 00:41:43;;;;;;;7.30;5.40;;;;;;;20.03;56.90;100653.99;107825;1257;72825;-80
2023/06/09 00:44:12;;;;;;;8.50;5.20;;;;;;;20.04;57.00;100652.56;107738;1257;73221;-79
2023/06/09 00:46:40;;;;;;;8.80;5.50;;;;;;;20.05;57.00;100649.44;107795;1257;61276;-80
2023/06/09 00:49:06;;;;;;;8.30;5.60;;;;;;;20.06;57.09;100649.92;108242;1257;61091;-79
2023/06/09 00:51:35;;;;;;;10.00;5.60;;;;;;;20.05;56.96;100652.21;107758;1257;74728;-80
2023/06/09 00:54:03;;;;;;;10.20;5.40;;;;;;;20.03;56.97;100647.86;107797;1257;73093;-80
2023/06/09 00:56:31;;;;;;;8.00;5.60;;;;;;;20.03;56.94;100644.52;107725;1256;72553;-79
2023/06/09 00:58:58;;;;;;;7.90;5.30;;;;;;;20.01;56.89;100639.96;107695;1257;61154;-80
2023/06/09 01:01:28;;;;;;;7.10;5.10;;;;;;;20.00;56.80;100642.60;107799;1257;61165;-80
2023/06/09 01:03:58;;;;;;;7.20;4.90;;;;;;;20.00;56.87;100639.42;108005;1257;74653;-79
2023/06/09 01:06:32;;;;;;;6.40;5.00;;;;;;;20.01;56.87;100637.23;107914;1257;72452;-81
2023/06/09 01:09:28;;;;;;;6.60;5.00;;;;;;;20.02;57.10;100639.92;107943;1257;72531;-78
2023/06/09 01:12:08;;;;;;;6.80;5.20;;;;;;;20.03;57.07;100636.80;107895;1257;61804;-80
2023/06/09 01:14:52;;;;;;;7.70;5.00;;;;;;;20.05;57.48;100637.64;107968;1257;61119;-80
2023/06/09 01:17:19;;;;;;;7.10;5.60;;;;;;;20.04;57.47;100635.81;108115;1257;75143;-80
2023/06/09 01:19:51;;;;;;;8.80;5.10;;;;;;;20.03;57.19;100639.55;107858;1258;73089;-80
2023/06/09 01:22:42;;;;;;;6.70;5.10;;;;;;;20.02;57.08;100640.00;108055;1256;72720;-80
2023/06/09 01:25:31;;;;;;;7.30;5.00;;;;;;;20.02;56.94;100639.30;107859;1257;60712;-79
2023/06/09 01:27:59;;;;;;;6.90;5.10;;;;;;;20.01;56.97;100641.56;107970;1257;61106;-80
2023/06/09 01:30:30;;;;;;;6.90;5.00;;;;;;;19.99;56.96;100640.00;107849;1262;73200;-80
2023/06/09 01:32:57;;;;;;;6.00;4.90;;;;;;;19.98;56.87;100638.34;107650;1256;72741;-81
2023/06/09 01:35:24;;;;;;;8.50;5.30;;;;;;;19.95;56.75;100636.58;107810;1257;72395;-79
2023/06/09 01:37:55;;;;;;;7.00;5.20;;;;;;;19.87;56.90;100632.84;107795;1257;61973;-79
2023/06/09 01:40:22;;;;;;;6.30;5.30;;;;;;;19.81;57.11;100631.77;107793;1257;61232;-79
2023/06/09 01:42:50;;;;;;;6.20;5.00;;;;;;;19.77;57.35;100631.86;107774;1256;74644;-79
2023/06/09 01:45:18;;;;;;;7.00;5.20;;;;;;;19.74;57.29;100631.29;107919;1256;72767;-79
2023/06/09 01:47:46;;;;;;;6.60;5.20;;;;;;;19.71;57.42;100634.48;107920;1257;72568;-79
2023/06/09 01:50:18;;;;;;;6.90;5.50;;;;;;;19.70;57.53;100636.58;107888;1256;61209;-79
2023/06/09 01:53:06;;;;;;;6.00;5.20;;;;;;;19.67;57.74;100634.91;107858;1257;61314;-80
2023/06/09 01:55:38;;;;;;;6.70;5.30;;;;;;;19.62;57.67;100636.73;107858;1257;73312;-79
2023/06/09 01:58:15;;;;;;;7.00;5.10;;;;;;;19.55;57.63;100636.77;107755;1257;73051;-79
2023/06/09 02:00:42;;;;;;;7.60;5.40;;;;;;;19.49;57.74;100635.86;107582;1257;71310;-79
2023/06/09 02:03:09;;;;;;;8.70;5.70;;;;;;;19.46;57.67;100635.29;107825;1262;61270;-80
2023/06/09 02:05:37;;;;;;;6.20;5.30;;;;;;;19.41;57.94;100637.21;107621;1257;61125;-79
2023/06/09 02:08:04;;;;;;;8.30;5.70;;;;;;;19.37;57.85;100638.09;107792;1257;73174;-79
2023/06/09 02:10:31;;;;;;;7.50;5.80;;;;;;;19.32;57.93;100637.40;107580;1256;71973;-79
2023/06/09 02:13:13;;;;;;;5.70;4.90;;;;;;;19.28;57.96;100638.29;107860;1256;72643;-79
2023/06/09 02:15:44;;;;;;;7.20;5.70;;;;;;;19.24;58.34;100636.96;107868;1256;61653;-79
2023/06/09 02:18:12;;;;;;;7.60;5.20;;;;;;;19.23;58.29;100633.23;107939;1256;61020;-79
2023/06/09 02:20:40;;;;;;;6.70;5.30;;;;;;;19.21;58.67;100632.65;107807;1257;74465;-79
2023/06/09 02:23:07;;;;;;;8.90;5.80;;;;;;;19.21;58.81;100636.30;107815;1256;73475;-79
2023/06/09 02:25:34;;;;;;;7.10;5.80;;;;;;;19.19;58.78;100635.16;107837;1257;71685;-79
2023/06/09 02:28:05;;;;;;;7.70;5.70;;;;;;;19.18;58.86;100630.48;107822;1257;62062;-78
2023/06/09 02:30:33;;;;;;;6.30;5.70;;;;;;;19.17;59.10;100632.28;107970;1257;60475;-79
2023/06/09 02:33:00;;;;;;;8.10;5.50;;;;;;;19.17;59.19;100631.27;107722;1257;74676;-79
2023/06/09 02:35:28;;;;;;;8.50;6.40;;;;;;;19.16;59.39;100633.94;107732;1256;71554;-79
2023/06/09 02:37:57;;;;;;;7.90;6.50;;;;;;;19.17;59.43;100634.58;107835;1257;72723;-79
2023/06/09 02:40:26;;;;;;;8.50;6.40;;;;;;;19.17;59.34;100636.36;107807;1256;61831;-79
2023/06/09 02:42:54;;;;;;;8.70;6.20;;;;;;;19.18;59.45;100641.69;107906;1256;61254;-79
2023/06/09 02:45:23;;;;;;;7.60;6.40;;;;;;;19.18;59.50;100641.46;107864;1256;73300;-78
2023/06/09 02:47:51;;;;;;;8.00;6.70;;;;;;;19.17;59.73;100647.73;107885;1257;72641;-79
2023/06/09 02:50:18;;;;;;;8.60;6.20;;;;;;;19.14;59.70;100646.83;107765;1261;72670;-79
2023/06/09 02:52:48;;;;;;;8.80;5.90;;;;;;;19.10;59.83;100650.83;107788;1257;61870;-80
2023/06/09 02:55:18;;;;;;;8.30;6.30;;;;;;;19.10;59.80;100654.14;107797;1256;61157;-79
2023/06/09 02:57:46;;;;;;;8.90;6.60;;;;;;;19.10;59.83;100655.70;107791;1257;73485;-80
2023/06/09 03:00:16;;;;;;;7.80;6.50;;;;;;;19.10;60.01;100653.05;107819;1262;72843;-79
2023/06/09 03:02:46;;;;;;;9.30;6.90;;;;;;;19.11;60.19;100653.63;107768;1258;71392;-80
2023/06/09 03:05:14;;;;;;;8.20;6.90;;;;;;;19.14;60.34;100655.40;107850;1257;61909;-80
2023/06/09 03:07:42;;;;;;;7.70;6.90;;;;;;;19.18;60.31;100657.83;107890;1257;61369;-80
2023/06/09 03:10:10;;;;;;;9.70;7.10;;;;;;;19.23;60.31;100660.94;107810;1256;74519;-80
2023/06/09 03:12:40;;;;;;;9.70;7.00;;;;;;;19.29;60.34;100664.27;107783;1256;72738;-80
2023/06/09 03:15:07;;;;;;;11.70;7.60;;;;;;;19.36;60.31;100663.67;107775;1258;70966;-80
2023/06/09 03:17:36;;;;;;;9.70;6.90;;;;;;;19.43;60.46;100663.92;107806;1257;61825;-80
2023/06/09 03:20:06;;;;;;;8.00;6.70;;;;;;;19.49;60.42;100662.95;107819;1257;61291;-80
2023/06/09 03:22:33;;;;;;;7.20;5.90;;;;;;;19.53;60.31;100667.91;107748;1257;74673;-81
2023/06/09 03:25:01;;;;;;;7.60;6.70;;;;;;;19.58;60.32;100670.59;107822;1256;72837;-80
2023/06/09 03:27:29;;;;;;;9.40;6.20;;;;;;;19.64;60.16;100671.91;107910;1256;72710;-80
2023/06/09 03:29:56;;;;;;;9.20;6.60;;;;;;;19.74;60.04;100670.29;107765;1257;62578;-80
2023/06/09 03:32:23;;;;;;;9.20;6.60;;;;;;;19.84;59.91;100667.59;107866;1259;61148;-80
2023/06/09 03:34:50;;;;;;;8.70;6.40;;;;;;;19.94;59.80;100663.23;107658;1257;74432;-80
2023/06/09 03:37:17;;;;;;;8.50;5.80;;;;;;;20.02;59.48;100664.55;107742;1256;72226;-80
2023/06/09 03:39:45;;;;;;;9.70;6.50;;;;;;;20.07;59.40;100666.86;107807;1257;71646;-80
2023/06/09 03:42:14;;;;;;;8.60;6.60;;;;;;;20.10;59.25;100665.99;107948;1256;62000;-80
2023/06/09 03:44:41;;;;;;;9.40;6.40;;;;;;;20.16;59.14;100668.74;107777;1256;61129;-81
2023/06/09 03:47:09;;;;;;;11.60;6.70;;;;;;;20.23;59.05;100669.83;107783;1258;74705;-80
2023/06/09 03:49:36;;;;;;;9.90;7.00;;;;;;;20.32;58.91;100668.30;107784;1256;72681;-80
2023/06/09 03:52:06;;;;;;;7.50;6.10;;;;;;;20.39;58.66;100669.92;107830;1258;71235;-80
2023/06/09 03:54:34;;;;;;;7.50;6.10;;;;;;;20.45;58.51;100671.13;107741;1258;62969;-80
2023/06/09 03:57:01;;;;;;;8.20;6.30;;;;;;;20.54;58.36;100671.00;107804;1257;61290;-80
2023/06/09 03:59:28;;;;;;;7.90;6.20;;;;;;;20.62;58.38;100666.09;107773;1257;73374;-80
2023/06/09 04:01:55;;;;;;;7.40;5.70;;;;;;;20.73;58.34;100669.55;107598;1256;72771;-80
2023/06/09 04:04:23;;;;;;;7.10;6.00;;;;;;;20.86;58.09;100669.02;107888;1256;72672;-80
2023/06/09 04:06:50;;;;;;;7.30;5.90;;;;;;;20.92;57.40;100673.42;107670;1262;61752;-80
2023/06/09 04:09:21;;;;;;;8.20;5.90;;;;;;;20.95;57.21;100669.52;107676;1256;61264;-80
2023/06/09 04:11:49;;;;;;;7.40;6.00;;;;;;;21.00;57.14;100670.23;107806;1256;74742;-80
2023/06/09 04:14:16;;;;;;;7.60;5.70;;;;;;;21.01;57.08;100671.09;107876;1259;72068;-80
2023/06/09 04:16:45;;;;;;;8.10;6.80;;;;;;;21.04;56.99;100670.19;107857;1256;72566;-80
2023/06/09 04:19:12;;;;;;;8.70;6.20;;;;;;;21.07;56.86;100671.16;107854;1257;61263;-80
2023/06/09 04:21:39;;;;;;;7.50;5.40;;;;;;;21.09;56.72;100674.13;107875;1257;61106;-80
2023/06/09 04:24:08;;;;;;;8.20;6.30;;;;;;;21.08;56.93;100675.38;108894;1256;75008;-78
2023/06/09 04:26:37;;;;;;;9.00;6.70;;;;;;;21.03;56.86;100678.84;108108;1256;72704;-79
2023/06/09 04:29:09;;;;;;;9.60;6.80;;;;;;;20.98;56.75;100677.21;107764;1258;72641;-79
2023/06/09 04:31:37;;;;;;;9.30;6.20;;;;;;;20.98;56.65;100679.55;107666;1256;61239;-81
2023/06/09 04:34:12;;;;;;;9.10;6.10;;;;;;;20.98;56.48;100678.26;107867;1257;61164;-80
2023/06/09 04:36:44;;;;;;;7.80;6.40;;;;;;;20.96;56.53;100678.16;107834;1258;74549;-80
2023/06/09 04:39:12;;;;;;;7.50;6.40;;;;;;;20.94;56.55;100674.79;107906;1257;72577;-80
2023/06/09 04:41:40;;;;;;;7.30;5.90;;;;;;;20.93;56.65;100675.23;107826;1256;71457;-79
2023/06/09 04:44:08;;;;;;;7.50;5.80;;;;;;;20.94;56.55;100679.07;107747;1257;61702;-79
2023/06/09 04:46:39;;;;;;;9.50;6.70;;;;;;;20.90;56.59;100681.09;107885;1257;60192;-79
2023/06/09 04:49:10;;;;;;;7.70;6.90;;;;;;;20.93;56.72;100679.33;107845;1256;74737;-79
2023/06/09 04:51:46;;;;;;;9.40;6.50;;;;;;;21.02;56.85;100676.77;107814;1257;71378;-80
2023/06/09 04:54:20;;;;;;;7.90;6.30;;;;;;;21.15;56.92;100676.15;107800;1256;72645;-80
2023/06/09 04:56:52;;;;;;;7.70;6.40;;;;;;;21.29;56.71;100669.71;107880;1256;61917;-80
2023/06/09 04:59:20;;;;;;;6.30;5.30;;;;;;;21.43;56.39;100667.92;107787;1256;61321;-80
2023/06/09 05:01:51;;;;;;;8.60;6.40;;;;;;;21.59;56.06;100668.96;107780;1257;74744;-80
2023/06/09 05:04:18;;;;;;;8.70;6.80;;;;;;;21.75;55.84;100666.75;107761;1257;71358;-80
2023/06/09 05:06:46;;;;;;;9.90;7.20;;;;;;;21.89;55.47;100661.92;107715;1256;72680;-80
2023/06/09 05:09:13;;;;;;;8.30;6.80;;;;;;;22.03;55.12;100658.65;108105;1256;59655;-80
2023/06/09 05:11:41;;;;;;;10.10;6.60;;;;;;;22.19;54.95;100656.17;107822;1257;60363;-80
2023/06/09 05:14:08;;;;;;;8.90;6.90;;;;;;;22.35;54.62;100656.02;107979;1256;74668;-79
2023/06/09 05:16:35;;;;;;;8.90;6.50;;;;;;;22.50;54.28;100653.84;107920;1256;72686;-78
2023/06/09 05:19:04;;;;;;;8.40;6.70;;;;;;;22.62;53.71;100651.18;107920;1256;72543;-79
2023/06/09 05:21:31;;;;;;;7.30;6.30;;;;;;;22.73;53.31;100645.86;107716;1256;63544;-80
2023/06/09 05:23:58;;;;;;;10.20;6.50;;;;;;;22.85;53.06;100652.42;107951;1256;61166;-79
2023/06/09 05:26:25;;;;;;;9.30;6.50;;;;;;;22.98;52.78;100657.02;107897;1256;74627;-78
2023/06/09 05:28:53;;;;;;;8.40;6.20;;;;;;;23.11;52.48;100656.89;107910;1256;72688;-80
2023/06/09 05:31:20;;;;;;;8.50;6.80;;;;;;;23.26;52.13;100661.27;107806;1259;72778;-84
2023/06/09 05:33:47;;;;;;;7.60;6.20;;;;;;;23.40;51.72;100655.42;107652;1257;61790;-80
2023/06/09 05:36:14;;;;;;;7.20;6.00;;;;;;;23.51;51.17;100650.70;107769;1256;61158;-80
2023/06/09 05:38:46;;;;;;;8.50;6.30;;;;;;;23.61;51.05;100652.35;107892;1258;74697;-80
2023/06/09 05:41:14;;;;;;;9.00;6.20;;;;;;;23.74;51.07;100656.11;107740;1260;71785;-80
2023/06/09 05:43:41;;;;;;;8.80;6.00;;;;;;;23.85;50.39;100655.98;107926;1256;71447;-79
2023/06/09 05:46:08;;;;;;;9.10;6.10;;;;;;;23.94;49.97;100653.18;107816;1257;61136;-80
2023/06/09 05:48:35;;;;;;;8.60;6.20;;;;;;;24.04;49.65;100651.48;108312;1256;61241;-80
2023/06/09 05:51:02;;;;;;;9.80;5.60;;;;;;;24.17;49.46;100650.90;107840;1257;74704;-79
2023/06/09 05:53:32;;;;;;;8.90;5.80;;;;;;;24.30;48.84;100651.34;107775;1256;72564;-80
2023/06/09 05:55:59;;;;;;;7.30;5.80;;;;;;;24.39;48.25;100655.03;107835;1256;72836;-79
2023/06/09 05:58:27;;;;;;;7.90;5.40;;;;;;;24.48;48.00;100655.69;107849;1256;61244;-79
2023/06/09 06:00:57;;;;;;;7.10;5.80;;;;;;;24.56;48.16;100654.26;107921;1256;61027;-82
2023/06/09 06:03:24;;;;;;;9.40;5.80;;;;;;;24.64;47.58;100656.51;107926;1257;74564;-80
2023/06/09 06:05:52;;;;;;;24.80;6.10;;;;;;;24.74;47.16;100653.02;107739;1257;72807;-79
2023/06/09 06:08:20;;;;;;;8.00;5.40;;;;;;;24.86;46.88;100657.31;108072;1257;72688;-81
2023/06/09 06:10:47;;;;;;;8.10;5.60;;;;;;;24.97;47.10;100652.68;108572;1256;61232;-80
2023/06/09 06:13:14;;;;;;;7.70;5.60;;;;;;;25.10;46.66;100651.27;107789;1256;60019;-81
2023/06/09 06:15:41;;;;;;;7.80;5.00;;;;;;;25.20;46.21;100649.22;107796;1256;73696;-82
2023/06/09 06:18:08;;;;;;;6.00;4.80;;;;;;;25.32;46.33;100650.02;107872;1256;71371;-81
2023/06/09 06:20:35;;;;;;;7.30;5.20;;;;;;;25.44;45.54;100651.34;107774;1260;72519;-82
2023/06/09 06:23:02;;;;;;;7.00;5.20;;;;;;;25.55;45.08;100650.72;107885;1256;61292;-82
2023/06/09 06:25:29;;;;;;;9.30;5.50;;;;;;;25.66;44.70;100652.07;107966;1256;61126;-82
2023/06/09 06:27:56;;;;;;;11.80;5.60;;;;;;;25.77;44.53;100651.38;107915;1256;73156;-82
2023/06/09 06:30:25;;;;;;;8.20;4.80;;;;;;;25.87;44.08;100645.67;107818;1256;72674;-83
2023/06/09 06:32:52;;;;;;;8.10;5.10;;;;;;;25.95;43.93;100649.45;107871;1256;73234;-80
2023/06/09 06:35:26;;;;;;;6.90;4.70;;;;;;;26.09;43.75;100651.20;107898;1257;61250;-81
2023/06/09 06:37:53;;;;;;;7.90;4.70;;;;;;;26.25;43.26;100647.56;107885;1257;60279;-82
2023/06/09 06:40:20;;;;;;;8.00;4.80;;;;;;;26.38;42.89;100647.66;107885;1256;76384;-82
2023/06/09 06:42:47;;;;;;;7.30;4.80;;;;;;;26.50;42.46;100647.19;107829;1257;71470;-81
2023/06/09 06:45:20;;;;;;;6.60;5.10;;;;;;;26.58;41.89;100646.73;107841;1257;72704;-82
2023/06/09 06:47:49;;;;;;;6.90;4.30;;;;;;;26.64;42.07;100645.98;107792;1256;61115;-83
2023/06/09 06:50:17;;;;;;;6.70;5.10;;;;;;;26.72;42.00;100650.59;107953;1256;61120;-81
2023/06/09 06:52:43;;;;;;;6.00;4.30;;;;;;;26.81;41.85;100650.11;107925;1257;74803;-82
2023/06/09 06:55:10;;;;;;;8.00;4.20;;;;;;;26.92;41.81;100651.23;107949;1256;72418;-81
2023/06/09 06:57:38;;;;;;;8.00;5.00;;;;;;;26.99;40.64;100650.56;107795;1256;72433;-83
2023/06/09 07:00:09;;;;;;;7.40;5.10;;;;;;;27.05;40.80;100649.42;107846;1256;61162;-82
2023/06/09 07:02:37;;;;;;;12.30;5.20;;;;;;;27.08;40.96;100650.17;107966;1256;61250;-81
2023/06/09 07:05:06;;;;;;;9.60;4.80;;;;;;;27.12;40.38;100649.52;107970;1256;75033;-81
2023/06/09 07:07:33;;;;;;;5.70;4.50;;;;;;;27.22;39.98;100644.23;107731;1256;72630;-81
2023/06/09 07:10:04;;;;;;;6.60;4.30;;;;;;;27.33;39.48;100646.20;108030;1256;72439;-81
2023/06/09 07:12:32;;;;;;;8.20;4.90;;;;;;;27.46;39.58;100645.22;108018;1256;61074;-81
2023/06/09 07:14:59;;;;;;;6.10;4.40;;;;;;;27.59;39.44;100645.73;108080;1256;61256;-81
2023/06/09 07:17:27;;;;;;;7.40;4.40;;;;;;;27.70;39.48;100647.52;108046;1256;73361;-81
2023/06/09 07:19:54;;;;;;;7.30;4.00;;;;;;;27.82;39.26;100646.47;108003;1256;72757;-82
2023/06/09 07:22:21;;;;;;;5.60;4.00;;;;;;;27.94;37.29;100642.15;108084;1256;71322;-81
2023/06/09 07:24:48;;;;;;;5.60;4.60;;;;;;;28.04;36.68;100642.44;108013;1256;61823;-82
2023/06/09 07:27:15;;;;;;;6.10;4.10;;;;;;;28.15;37.35;100645.38;108015;1257;61073;-83
2023/06/09 07:29:42;;;;;;;6.90;3.90;;;;;;;28.25;36.75;100646.36;107948;1256;172376;-85
2023/06/09 07:32:10;;;;;;;7.70;4.60;;;;;;;28.28;35.91;100641.77;107899;1256;73226;-81
2023/06/09 07:34:37;;;;;;;5.90;4.00;;;;;;;28.33;35.58;100640.17;107931;1256;72785;-82
2023/06/09 07:37:05;;;;;;;6.20;3.90;;;;;;;28.42;35.92;100638.65;107942;1257;61177;-82
2023/06/09 07:39:34;;;;;;;6.60;4.00;;;;;;;28.46;34.85;100640.27;107909;1257;61109;-83
2023/06/09 07:42:01;;;;;;;27.10;7.10;;;;;;;28.42;35.10;100633.07;107994;1257;74847;-81
2023/06/09 07:44:28;;;;;;;8.60;3.70;;;;;;;28.48;36.14;100635.89;107872;1256;72753;-83
2023/06/09 07:46:55;;;;;;;15.90;5.50;;;;;;;28.57;36.30;100635.83;107875;1257;62646;-82
2023/06/09 07:49:22;;;;;;;7.90;4.30;;;;;;;28.65;36.81;100635.50;107904;1255;61308;-82
2023/06/09 07:51:50;;;;;;;8.40;4.10;;;;;;;28.80;37.03;100633.84;107902;1256;61259;-82
2023/06/09 07:54:18;;;;;;;6.80;4.10;;;;;;;28.92;35.77;100636.54;107893;1257;66137;-82
2023/06/09 07:56:49;;;;;;;7.50;3.90;;;;;;;28.98;35.41;100635.17;108221;1257;72565;-81
2023/06/09 07:59:19;;;;;;;9.60;4.70;;;;;;;29.04;35.00;100635.48;107720;1257;63902;-80
2023/06/09 08:01:46;;;;;;;6.00;4.00;;;;;;;29.10;34.87;100633.96;107816;1259;61142;-81
2023/06/09 08:04:15;;;;;;;4.80;3.50;;;;;;;29.17;34.68;100634.02;107830;1257;61122;-81
2023/06/09 08:06:43;;;;;;;5.90;3.80;;;;;;;29.33;34.53;100634.13;107826;1257;74719;-82
2023/06/09 08:09:09;;;;;;;6.90;4.20;;;;;;;29.52;34.27;100634.40;107831;1257;62647;-82
2023/06/09 08:11:38;;;;;;;9.10;4.50;;;;;;;29.66;33.49;100628.52;107829;1257;63959;-83
2023/06/09 08:14:08;;;;;;;11.60;4.80;;;;;;;29.74;32.91;100630.70;107877;1257;61279;-82
2023/06/09 08:16:35;;;;;;;17.40;5.60;;;;;;;29.78;33.34;100630.50;107868;1259;59126;-82
2023/06/09 08:19:02;;;;;;;9.10;4.30;;;;;;;29.83;33.11;100626.48;107902;1257;66224;-81
2023/06/09 08:21:30;;;;;;;6.50;3.60;;;;;;;29.87;32.84;100627.91;107873;1257;64158;-81
2023/06/09 08:23:57;;;;;;;9.80;4.20;;;;;;;29.92;32.50;100625.27;107720;1257;64021;-81
2023/06/09 08:26:25;;;;;;;6.00;3.70;;;;;;;29.94;31.37;100623.23;107773;1258;61176;-81
2023/06/09 08:28:52;;;;;;;5.40;3.30;;;;;;;29.90;30.89;100623.23;107791;1257;59845;-81
2023/06/09 08:31:20;;;;;;;9.30;3.90;;;;;;;29.79;30.81;100621.84;107848;1257;66150;-83
2023/06/09 08:33:47;;;;;;;7.10;3.10;;;;;;;29.62;30.59;100619.38;107855;1257;64117;-83
2023/06/09 08:36:14;;;;;;;9.20;4.00;;;;;;;29.55;30.20;100618.63;107975;1259;62606;-82
2023/06/09 08:38:41;;;;;;;5.00;3.00;;;;;;;29.52;30.50;100616.79;107849;1257;59270;-82
2023/06/09 08:41:09;;;;;;;9.20;3.70;;;;;;;29.46;29.48;100616.67;107739;1262;61155;-80
2023/06/09 08:43:36;;;;;;;5.70;2.80;;;;;;;29.53;29.82;100618.68;107949;1257;66086;-80
2023/06/09 08:46:05;;;;;;;4.90;3.00;;;;;;;29.73;29.07;100614.88;108088;1258;64014;-80
2023/06/09 08:48:33;;;;;;;5.60;3.50;;;;;;;29.91;28.88;100611.19;107993;1256;64204;-81
2023/06/09 08:51:00;;;;;;;8.30;3.10;;;;;;;30.08;29.30;100613.68;107655;1257;61289;-81
2023/06/09 08:53:27;;;;;;;7.50;3.20;;;;;;;30.21;29.32;100612.02;107999;1256;61134;-81
2023/06/09 08:55:54;;;;;;;5.70;3.10;;;;;;;30.35;28.99;100612.05;108036;1256;64546;-81
2023/06/09 08:58:23;;;;;;;3.90;2.90;;;;;;;30.51;28.64;100614.20;107767;1256;62974;-82
2023/06/09 09:00:51;;;;;;;3.90;2.70;;;;;;;30.74;28.31;100607.15;108008;1256;62786;-81
2023/06/09 09:03:20;;;;;;;423.40;47.70;;;;;;;30.86;26.81;100608.75;107817;1256;59329;-81
2023/06/09 09:05:48;;;;;;;15.20;4.70;;;;;;;30.80;26.36;100609.23;108067;1256;60508;-81
2023/06/09 09:08:15;;;;;;;7.30;2.90;;;;;;;30.77;26.72;100607.48;108003;1257;65940;-82
2023/06/09 09:10:46;;;;;;;4.50;2.30;;;;;;;30.84;26.10;100607.64;107766;1257;63987;-82
2023/06/09 09:13:14;;;;;;;4.30;2.20;;;;;;;30.90;24.89;100607.09;107742;1260;62547;-82
2023/06/09 09:15:48;;;;;;;5.60;2.10;;;;;;;30.84;25.13;100605.59;107798;1257;61293;-80
2023/06/09 09:18:17;;;;;;;5.50;2.10;;;;;;;30.80;25.57;100602.84;107750;1257;61352;-80
2023/06/09 09:20:44;;;;;;;5.60;2.20;;;;;;;30.75;25.55;100596.75;107732;1256;66311;-82
2023/06/09 09:23:11;;;;;;;7.30;2.20;;;;;;;30.75;25.47;100599.58;108013;1256;64133;-82
2023/06/09 09:25:38;;;;;;;5.90;2.50;;;;;;;30.73;25.43;100601.23;107980;1256;63892;-81
2023/06/09 09:28:06;;;;;;;5.20;2.30;;;;;;;30.63;25.64;100602.02;107975;1257;61119;-81
2023/06/09 09:31:02;;;;;;;5.80;2.40;;;;;;;30.53;25.57;100598.61;107848;1256;61352;-81
2023/06/09 09:33:30;;;;;;;5.10;2.20;;;;;;;30.43;25.93;100594.51;107764;1258;65258;-83
2023/06/09 09:35:57;;;;;;;5.90;2.40;;;;;;;30.40;25.91;100593.01;107918;1262;63943;-81
2023/06/09 09:38:27;;;;;;;3.80;2.40;;;;;;;30.46;26.11;100592.86;107987;1256;63738;-81
2023/06/09 09:40:55;;;;;;;4.30;2.50;;;;;;;30.56;26.11;100589.56;107921;1257;61205;-79
2023/06/09 09:43:26;;;;;;;4.10;2.60;;;;;;;30.66;25.61;100591.54;107754;1262;59627;-82
2023/06/09 09:45:54;;;;;;;4.60;2.50;;;;;;;30.72;25.67;100591.77;107739;1257;66084;-82
2023/06/09 09:48:24;;;;;;;5.00;2.40;;;;;;;30.81;25.47;100587.23;107817;1257;64099;-81
2023/06/09 09:50:57;;;;;;;4.60;2.70;;;;;;;30.88;25.91;100584.95;107854;1257;63338;-82
2023/06/09 09:53:25;;;;;;;6.40;2.50;;;;;;;30.94;25.85;100586.20;107855;1259;61129;-82
2023/06/09 09:55:56;;;;;;;6.60;2.70;;;;;;;31.06;25.27;100588.02;107833;1257;61254;-83
2023/06/09 09:58:36;;;;;;;4.50;2.70;;;;;;;31.19;25.25;100586.56;107919;1257;65821;-81
2023/06/09 10:01:04;;;;;;;6.00;2.50;;;;;;;31.35;25.17;100581.43;107772;1258;65841;-82
2023/06/09 10:03:32;;;;;;;9.00;3.10;;;;;;;31.53;24.89;100577.28;107836;1259;62649;-82
2023/06/09 10:06:01;;;;;;;4.80;2.70;;;;;;;31.68;24.40;100575.26;107788;1257;61679;-81
2023/06/09 10:08:31;;;;;;;4.60;2.50;;;;;;;31.73;24.26;100579.73;107877;1258;61381;-82
2023/06/09 10:11:01;;;;;;;14.00;4.20;;;;;;;31.71;24.84;100580.53;107934;1256;66125;-81
2023/06/09 10:13:29;;;;;;;4.60;2.60;;;;;;;31.71;24.65;100579.89;108020;1256;65324;-81
2023/06/09 10:15:58;;;;;;;4.10;2.50;;;;;;;31.79;24.82;100579.55;107758;1256;63941;-81
2023/06/09 10:18:25;;;;;;;35.30;5.40;;;;;;;31.94;25.03;100573.41;107939;1256;59325;-81
2023/06/09 10:20:52;;;;;;;5.80;3.00;;;;;;;32.11;24.84;100569.06;107731;1257;59502;-81
2023/06/09 10:23:20;;;;;;;5.50;2.40;;;;;;;32.30;24.59;100568.47;107920;1256;65976;-81
2023/06/09 10:25:50;;;;;;;8.20;3.10;;;;;;;32.49;24.73;100569.15;107912;1256;64103;-82
2023/06/09 10:28:18;;;;;;;4.90;2.40;;;;;;;32.67;23.86;100561.42;107847;1256;62892;-82
2023/06/09 10:30:48;;;;;;;7.60;3.00;;;;;;;32.61;23.47;100561.23;108011;1256;61259;-82
2023/06/09 10:33:25;;;;;;;18.90;4.60;;;;;;;32.43;23.98;100556.77;107809;1256;61195;-82
2023/06/09 10:35:56;;;;;;;21.80;3.40;;;;;;;32.30;23.78;100550.78;107715;1263;66066;-82
2023/06/09 10:38:38;;;;;;;6.30;2.60;;;;;;;32.13;23.70;100551.84;107990;1256;62840;-82
2023/06/09 10:41:28;;;;;;;8.80;3.00;;;;;;;31.90;24.10;100548.09;107982;1259;62570;-82
2023/06/09 10:44:18;;;;;;;6.70;2.60;;;;;;;31.71;24.09;100551.81;107814;1257;61098;-82
2023/06/09 10:46:50;;;;;;;4.10;2.60;;;;;;;31.49;24.25;100552.77;107712;1257;59353;-82
2023/06/09 10:49:29;;;;;;;5.40;2.70;;;;;;;31.32;24.33;100547.20;107696;1257;64480;-82
2023/06/09 10:51:56;;;;;;;4.80;2.60;;;;;;;31.23;24.84;100542.56;108045;1257;62860;-81
2023/06/09 10:54:27;;;;;;;4.80;2.40;;;;;;;31.18;25.37;100542.02;107905;1257;63993;-82
2023/06/09 10:57:00;;;;;;;4.90;2.40;;;;;;;31.11;25.44;100539.91;107824;1256;59321;-81
2023/06/09 10:59:29;;;;;;;5.70;2.30;;;;;;;31.09;25.15;100538.89;107937;1260;60980;-82
2023/06/09 11:02:02;;;;;;;5.70;2.60;;;;;;;31.12;24.63;100537.23;107855;1257;64672;-81
2023/06/09 11:04:52;;;;;;;6.00;2.70;;;;;;;31.18;24.44;100531.70;107894;1259;64110;-82
2023/06/09 11:07:24;;;;;;;4.70;2.90;;;;;;;31.27;24.62;100529.46;107804;1256;63877;-82
2023/06/09 11:09:51;;;;;;;7.00;2.70;;;;;;;31.41;24.76;100525.42;107776;1256;61135;-82
2023/06/09 11:12:27;;;;;;;4.10;2.60;;;;;;;31.67;24.68;100526.10;108064;1256;61234;-81
2023/06/09 11:14:58;;;;;;;3.90;2.40;;;;;;;31.90;23.59;100522.45;108017;1257;64870;-82
2023/06/09 11:17:26;;;;;;;5.70;3.00;;;;;;;32.04;24.15;100518.11;108003;1257;63936;-82
2023/06/09 11:20:10;;;;;;;5.00;2.80;;;;;;;32.20;23.85;100515.71;108015;1256;62488;-82
2023/06/09 11:22:42;;;;;;;6.20;2.70;;;;;;;32.37;23.74;100511.41;107998;1256;61196;-82
2023/06/09 11:25:19;;;;;;;;;;;;;;;32.54;22.96;100504.97;107924;1257;59215;-81
2023/06/09 11:27:56;;;;;;;4.40;2.40;;;;;;;32.65;23.47;100505.42;107804;1261;66146;-82